Flight Track Log - Related Links

Times and Time Zones

All times are in EDT time to prevent confusion due to time zone crossing. See the CAV521 flight status page for this flight to view local times or setup timezone preferences in your user account.

Time Position Orientation Groundspeed Altitude Reporting Facility
EDT Latitude Longitude Course Direction KTS MPH feet Rate Location/Type
Tue 07:24:48 PM 49.8833 -97.2333 356° North 130 150 1,600  Level Winnipeg Center
Tue 07:25:48 PM 49.8500 -97.2500 198° South 150 173 2,600 900 Climbing Winnipeg Center
Tue 07:26:48 PM 49.8500 -97.3333 270° West 170 196 3,400 1,000 Climbing Winnipeg Center
Tue 07:27:48 PM 49.8833 -97.3500 342° North 180 207 4,600 1,100 Climbing Winnipeg Center
Tue 07:28:48 PM 49.9500 -97.3500 360° North 190 219 5,600 1,000 Climbing Winnipeg Center
Tue 07:29:48 PM 50.0000 -97.3500 360° North 190 219 6,600 1,100 Climbing Winnipeg Center
Tue 07:30:00 PM 50.2988 -97.2682 356° North  Level FlightAware Approximate
Tue 07:30:48 PM 50.0500 -97.3500 360° North 200 230 7,800  Level Winnipeg Center
Tue 07:31:48 PM 50.1000 -97.3500 360° North 190 219 8,700 950 Climbing Winnipeg Center
Tue 07:32:48 PM 50.1500 -97.3500 360° North 190 219 9,700 950 Climbing Winnipeg Center
Tue 07:33:48 PM 50.2167 -97.3500 360° North 200 230 10,600 950 Climbing Winnipeg Center
Tue 07:34:48 PM 50.2667 -97.3833 337° Northwest 200 230 11,600 1,000 Climbing Winnipeg Center
Tue 07:35:48 PM 50.3167 -97.3833 360° North 200 230 12,600 900 Climbing Winnipeg Center
Tue 07:36:48 PM 50.3833 -97.3833 360° North 200 230 13,400 800 Climbing Winnipeg Center
Tue 07:37:48 PM 50.4333 -97.3833 360° North 200 230 14,200 800 Climbing Winnipeg Center
Tue 07:38:48 PM 50.4833 -97.3833 360° North 210 242 15,000 850 Climbing Winnipeg Center
Tue 07:39:48 PM 50.5500 -97.3833 360° North 210 242 15,900 800 Climbing Winnipeg Center
Tue 07:40:48 PM 50.6000 -97.3833 360° North 200 230 16,600 750 Climbing Winnipeg Center
Tue 07:41:48 PM 50.6667 -97.4167 342° North 200 230 17,400 700 Climbing Winnipeg Center
Tue 07:42:48 PM 50.7167 -97.4167 360° North 200 230 18,000 600 Climbing Winnipeg Center
Tue 07:43:48 PM 50.7667 -97.4167 360° North 210 242 18,600 600 Climbing Winnipeg Center
Tue 07:44:48 PM 50.8333 -97.4167 360° North 210 242 19,200 600 Climbing Winnipeg Center
Tue 07:45:48 PM 50.8833 -97.4167 360° North 210 242 19,800 550 Climbing Winnipeg Center
Tue 07:46:48 PM 50.9500 -97.4167 360° North 210 242 20,300 550 Climbing Winnipeg Center
Tue 07:47:48 PM 51.0000 -97.4500 337° Northwest 210 242 20,900 550 Climbing Winnipeg Center
Tue 07:48:48 PM 51.0667 -97.4500 360° North 210 242 21,400 450 Climbing Winnipeg Center
Tue 07:49:48 PM 51.1167 -97.4500 360° North 210 242 21,800 300 Climbing Winnipeg Center
Tue 07:50:48 PM 51.1833 -97.4500 360° North 210 242 22,000 100 Climbing Winnipeg Center
Tue 07:51:48 PM 51.2500 -97.4500 360° North 230 265 22,000  Level Winnipeg Center
Tue 07:52:48 PM 51.3000 -97.4500 360° North 240 276 22,000  Level Winnipeg Center
Tue 07:53:48 PM 51.3833 -97.4667 353° North 250 288 22,000  Level Winnipeg Center
Tue 07:54:48 PM 51.4500 -97.4833 351° North 250 288 22,000  Level Winnipeg Center
Tue 07:55:48 PM 51.5167 -97.4833 360° North 250 288 22,000  Level Winnipeg Center
Tue 07:56:48 PM 51.5833 -97.4833 360° North 250 288 22,000  Level Winnipeg Center
Tue 07:57:48 PM 51.6500 -97.4833 360° North 250 288 22,000  Level Winnipeg Center
Tue 07:58:48 PM 51.7167 -97.4833 360° North 240 276 22,000  Level Winnipeg Center
Tue 07:59:48 PM 51.7833 -97.5000 351° North 250 288 22,000  Level Winnipeg Center
Tue 08:00:48 PM 51.8500 -97.5000 360° North 240 276 22,000  Level Winnipeg Center
Tue 08:01:48 PM 51.9333 -97.5000 360° North 240 276 22,000  Level Winnipeg Center
Tue 08:02:48 PM 51.9833 -97.5000 360° North 240 276 22,000  Level Winnipeg Center
Tue 08:03:48 PM 52.0500 -97.5167 351° North 250 288 22,000  Level Winnipeg Center
Tue 08:04:48 PM 52.1333 -97.5167 360° North 250 288 22,000  Level Winnipeg Center
Tue 08:05:48 PM 52.2000 -97.5333 351° North 250 288 22,000  Level Winnipeg Center
Tue 08:06:48 PM 52.2667 -97.5333 360° North 250 288 22,000  Level Winnipeg Center
Tue 08:07:48 PM 52.3333 -97.5333 360° North 250 288 22,000  Level Winnipeg Center
Tue 08:08:48 PM 52.4000 -97.5333 360° North 250 288 22,000  Level Winnipeg Center
Tue 08:09:48 PM 52.4667 -97.5333 360° North 250 288 22,000  Level Winnipeg Center
Tue 08:10:48 PM 52.5500 -97.5667 346° North 250 288 22,000  Level Winnipeg Center
Tue 08:11:48 PM 52.6167 -97.5667 360° North 250 288 22,000  Level Winnipeg Center
Tue 08:12:48 PM 52.6833 -97.5667 360° North 250 288 22,000  Level Winnipeg Center
Tue 08:13:48 PM 52.7500 -97.5667 360° North 250 288 22,000  Level Winnipeg Center
Tue 08:14:48 PM 52.8167 -97.5667 360° North 250 288 22,000  Level Winnipeg Center
Tue 08:15:48 PM 52.9000 -97.5667 360° North 250 288 22,000  Level Winnipeg Center
Tue 08:16:48 PM 52.9667 -97.5833 351° North 250 288 22,000  Level Winnipeg Center
Tue 08:17:48 PM 53.0333 -97.6000 351° North 250 288 22,000  Level Winnipeg Center
Tue 08:18:48 PM 53.1000 -97.6000 360° North 250 288 22,000  Level Winnipeg Center
Tue 08:19:48 PM 53.1667 -97.6000 360° North 250 288 22,000  Level Winnipeg Center
Tue 08:20:48 PM 53.2333 -97.6000 360° North 250 288 22,000  Level Winnipeg Center
Tue 08:21:48 PM 53.3000 -97.6333 343° North 250 288 22,000  Level Winnipeg Center
Tue 08:22:48 PM 53.3833 -97.6333 360° North 250 288 22,000  Level Winnipeg Center
Tue 08:23:48 PM 53.4500 -97.6333 360° North 250 288 22,000  Level Winnipeg Center
Tue 08:24:48 PM 53.5333 -97.6333 360° North 250 288 22,000  Level Winnipeg Center
Tue 08:25:48 PM 53.6000 -97.6333 360° North 240 276 22,000  Level Winnipeg Center
Tue 08:26:48 PM 53.6667 -97.6333 360° North 240 276 22,000  Level Winnipeg Center
Tue 08:27:48 PM 53.7333 -97.6667 344° North 240 276 22,000  Level Winnipeg Center
Tue 08:28:48 PM 53.8000 -97.6667 360° North 240 276 22,000  Level Winnipeg Center
Tue 08:29:48 PM 53.8667 -97.6667 360° North 240 276 22,000  Level Winnipeg Center
Tue 08:30:48 PM 53.9333 -97.6667 360° North 240 276 22,000  Level Winnipeg Center
Tue 08:31:48 PM 54.0000 -97.6833 352° North 240 276 22,000  Level Winnipeg Center
Tue 08:32:48 PM 54.0667 -97.6833 360° North 240 276 22,000  Level Winnipeg Center
Tue 08:33:48 PM 54.1333 -97.7000 352° North 240 276 22,000  Level Winnipeg Center
Tue 08:34:48 PM 54.2000 -97.7000 360° North 240 276 22,000  Level Winnipeg Center
Tue 08:35:48 PM 54.2667 -97.7000 360° North 240 276 22,000  Level Winnipeg Center
Tue 08:36:48 PM 54.3333 -97.7167 352° North 240 276 22,000  Level Winnipeg Center
Tue 08:37:48 PM 54.4000 -97.7167 360° North 240 276 22,000  Level Winnipeg Center
Tue 08:38:48 PM 54.4667 -97.7167 360° North 240 276 22,000  Level Winnipeg Center
Tue 08:39:48 PM 54.5167 -97.7333 349° North 240 276 22,000  Level Winnipeg Center
Tue 08:40:48 PM 54.6000 -97.7500 353° North 240 276 22,000  Level Winnipeg Center
Tue 08:41:48 PM 54.6667 -97.7500 360° North 240 276 22,000  Level Winnipeg Center
Tue 08:42:48 PM 54.7333 -97.7500 360° North 240 276 22,000  Level Winnipeg Center
Tue 08:43:48 PM 54.8000 -97.7500 360° North 240 276 22,000  Level Winnipeg Center
Tue 08:44:48 PM 54.8667 -97.7833 344° North 240 276 22,000 -650 Level Winnipeg Center
Tue 08:45:48 PM 54.9333 -97.7833 360° North 250 288 20,700 -1,550 Descending Winnipeg Center
Tue 08:46:48 PM 55.0167 -97.7833 360° North 290 334 18,900 -1,700 Descending Winnipeg Center
Tue 08:47:48 PM 55.1000 -97.7833 360° North 300 345 17,300 -1,700 Descending Winnipeg Center
Tue 08:48:48 PM 55.1833 -97.7833 360° North 290 334 15,500 -1,750 Descending Winnipeg Center
Tue 08:49:48 PM 55.2500 -97.7833 360° North 280 322 13,800 -1,650 Descending Winnipeg Center
Tue 08:50:48 PM 55.3333 -97.7833 360° North 280 322 12,200 -1,900 Descending Winnipeg Center
Tue 08:51:48 PM 55.4167 -97.7833 360° North 270 311 10,000 -2,100 Descending Winnipeg Center
Tue 08:52:48 PM 55.4833 -97.7833 360° North 250 288 8,000 -1,950 Descending Winnipeg Center
Tue 08:53:48 PM 55.5500 -97.7833 360° North 240 276 6,100 -1,850 Descending Winnipeg Center
Tue 08:54:48 PM 55.6000 -97.7833 360° North 230 265 4,300 -1,750 Descending Winnipeg Center
Tue 08:55:48 PM 55.6667 -97.8000 352° North 220 253 2,600 -1,150 Descending Winnipeg Center
Tue 08:56:48 PM 55.7167 -97.8000 360° North 190 219 2,000 -400 Descending Winnipeg Center
Tue 08:57:48 PM 55.7500 -97.8000 360° North 120 138 1,800 -400 Descending Winnipeg Center
Tue 08:58:48 PM 55.7667 -97.8167 331° Northwest 100 115 1,200 -500 Descending Winnipeg Center
Tue 08:59:48 PM 55.8000 -97.8500 331° Northwest 100 115 800 -400 Descending Winnipeg Center

Login

Don't have an account? Register now (free) for customized features, flight alerts, and more!